sensor_id;sensor_type;location;lat;lon;timestamp;P1;durP1;ratioP1;P2;durP2;ratioP2
61572;SDS011;47465;43.094;12.434;2022-07-22T00:01:45;11.48;;;7.88;;
61572;SDS011;47465;43.094;12.434;2022-07-22T00:04:11;8.85;;;7.95;;
61572;SDS011;47465;43.094;12.434;2022-07-22T00:06:37;10.65;;;7.95;;
61572;SDS011;47465;43.094;12.434;2022-07-22T00:09:03;13.93;;;7.97;;
61572;SDS011;47465;43.094;12.434;2022-07-22T00:11:29;10.80;;;7.95;;
61572;SDS011;47465;43.094;12.434;2022-07-22T00:13:55;10.48;;;8.65;;
61572;SDS011;47465;43.094;12.434;2022-07-22T00:16:22;10.40;;;8.45;;
61572;SDS011;47465;43.094;12.434;2022-07-22T00:18:48;10.77;;;8.63;;
61572;SDS011;47465;43.094;12.434;2022-07-22T00:21:14;10.70;;;8.60;;
61572;SDS011;47465;43.094;12.434;2022-07-22T00:23:40;11.98;;;8.88;;
61572;SDS011;47465;43.094;12.434;2022-07-22T00:26:05;11.35;;;8.30;;
61572;SDS011;47465;43.094;12.434;2022-07-22T00:28:31;13.15;;;8.32;;
61572;SDS011;47465;43.094;12.434;2022-07-22T00:30:57;10.50;;;8.05;;
61572;SDS011;47465;43.094;12.434;2022-07-22T00:33:25;11.50;;;8.52;;
61572;SDS011;47465;43.094;12.434;2022-07-22T00:35:51;10.50;;;8.40;;
61572;SDS011;47465;43.094;12.434;2022-07-22T00:38:17;10.43;;;8.13;;
61572;SDS011;47465;43.094;12.434;2022-07-22T00:40:43;10.23;;;8.15;;
61572;SDS011;47465;43.094;12.434;2022-07-22T00:43:08;8.95;;;8.02;;
61572;SDS011;47465;43.094;12.434;2022-07-22T00:45:34;11.10;;;8.00;;
61572;SDS011;47465;43.094;12.434;2022-07-22T00:48:01;9.98;;;7.68;;
61572;SDS011;47465;43.094;12.434;2022-07-22T00:50:29;9.18;;;8.13;;
61572;SDS011;47465;43.094;12.434;2022-07-22T00:52:55;9.43;;;7.82;;
61572;SDS011;47465;43.094;12.434;2022-07-22T00:55:21;8.98;;;7.75;;
61572;SDS011;47465;43.094;12.434;2022-07-22T00:57:47;11.65;;;8.15;;
61572;SDS011;47465;43.094;12.434;2022-07-22T01:00:14;11.50;;;7.78;;
61572;SDS011;47465;43.094;12.434;2022-07-22T01:02:42;11.55;;;8.45;;
61572;SDS011;47465;43.094;12.434;2022-07-22T01:05:08;13.50;;;9.40;;
61572;SDS011;47465;43.094;12.434;2022-07-22T01:07:35;10.93;;;8.60;;
61572;SDS011;47465;43.094;12.434;2022-07-22T01:10:02;10.85;;;8.23;;
61572;SDS011;47465;43.094;12.434;2022-07-22T01:12:28;10.40;;;8.35;;
61572;SDS011;47465;43.094;12.434;2022-07-22T01:14:54;9.95;;;8.48;;
61572;SDS011;47465;43.094;12.434;2022-07-22T01:17:20;10.85;;;8.10;;
61572;SDS011;47465;43.094;12.434;2022-07-22T01:19:46;10.15;;;8.02;;
61572;SDS011;47465;43.094;12.434;2022-07-22T01:22:13;13.48;;;8.18;;
61572;SDS011;47465;43.094;12.434;2022-07-22T01:24:39;9.43;;;8.25;;
61572;SDS011;47465;43.094;12.434;2022-07-22T01:27:05;9.77;;;8.20;;
61572;SDS011;47465;43.094;12.434;2022-07-22T01:29:31;10.82;;;8.40;;
61572;SDS011;47465;43.094;12.434;2022-07-22T01:31:57;10.77;;;8.23;;
61572;SDS011;47465;43.094;12.434;2022-07-22T01:34:23;9.95;;;8.38;;
61572;SDS011;47465;43.094;12.434;2022-07-22T01:36:49;10.73;;;7.97;;
61572;SDS011;47465;43.094;12.434;2022-07-22T01:39:16;10.77;;;8.30;;
61572;SDS011;47465;43.094;12.434;2022-07-22T01:41:42;11.43;;;9.13;;
61572;SDS011;47465;43.094;12.434;2022-07-22T01:44:08;10.30;;;8.30;;
61572;SDS011;47465;43.094;12.434;2022-07-22T01:46:34;11.00;;;8.38;;
61572;SDS011;47465;43.094;12.434;2022-07-22T01:49:00;11.10;;;8.65;;
61572;SDS011;47465;43.094;12.434;2022-07-22T01:51:26;11.30;;;8.57;;
61572;SDS011;47465;43.094;12.434;2022-07-22T01:53:52;13.98;;;8.82;;
61572;SDS011;47465;43.094;12.434;2022-07-22T01:56:20;11.20;;;8.57;;
61572;SDS011;47465;43.094;12.434;2022-07-22T01:58:45;12.00;;;9.27;;
61572;SDS011;47465;43.094;12.434;2022-07-22T02:01:11;10.77;;;8.55;;
61572;SDS011;47465;43.094;12.434;2022-07-22T02:03:37;11.73;;;8.90;;
61572;SDS011;47465;43.094;12.434;2022-07-22T02:06:03;12.15;;;8.45;;
61572;SDS011;47465;43.094;12.434;2022-07-22T02:08:29;12.27;;;8.52;;
61572;SDS011;47465;43.094;12.434;2022-07-22T02:10:55;12.05;;;8.48;;
61572;SDS011;47465;43.094;12.434;2022-07-22T02:13:23;13.07;;;8.38;;
61572;SDS011;47465;43.094;12.434;2022-07-22T02:15:48;12.30;;;8.60;;
61572;SDS011;47465;43.094;12.434;2022-07-22T02:18:15;12.35;;;8.50;;
61572;SDS011;47465;43.094;12.434;2022-07-22T02:20:43;10.63;;;8.10;;
61572;SDS011;47465;43.094;12.434;2022-07-22T02:23:10;9.45;;;8.45;;
61572;SDS011;47465;43.094;12.434;2022-07-22T02:25:36;10.48;;;8.60;;
61572;SDS011;47465;43.094;12.434;2022-07-22T02:28:03;10.23;;;8.25;;
61572;SDS011;47465;43.094;12.434;2022-07-22T02:30:30;12.75;;;8.40;;
61572;SDS011;47465;43.094;12.434;2022-07-22T02:32:57;10.40;;;8.43;;
61572;SDS011;47465;43.094;12.434;2022-07-22T02:35:23;11.30;;;8.60;;
61572;SDS011;47465;43.094;12.434;2022-07-22T02:37:49;11.45;;;8.35;;
61572;SDS011;47465;43.094;12.434;2022-07-22T02:40:16;12.30;;;8.90;;
61572;SDS011;47465;43.094;12.434;2022-07-22T02:42:41;14.15;;;8.93;;
61572;SDS011;47465;43.094;12.434;2022-07-22T02:45:08;10.05;;;8.65;;
61572;SDS011;47465;43.094;12.434;2022-07-22T02:47:36;11.15;;;8.93;;
61572;SDS011;47465;43.094;12.434;2022-07-22T02:50:10;10.38;;;8.50;;
61572;SDS011;47465;43.094;12.434;2022-07-22T02:52:36;11.18;;;8.43;;
61572;SDS011;47465;43.094;12.434;2022-07-22T02:55:02;11.23;;;9.00;;
61572;SDS011;47465;43.094;12.434;2022-07-22T02:57:28;11.00;;;9.07;;
61572;SDS011;47465;43.094;12.434;2022-07-22T02:59:54;10.13;;;8.75;;
61572;SDS011;47465;43.094;12.434;2022-07-22T03:02:20;10.40;;;8.40;;
61572;SDS011;47465;43.094;12.434;2022-07-22T03:04:47;10.45;;;8.82;;
61572;SDS011;47465;43.094;12.434;2022-07-22T03:07:13;11.32;;;8.80;;
61572;SDS011;47465;43.094;12.434;2022-07-22T03:09:39;9.30;;;8.40;;
61572;SDS011;47465;43.094;12.434;2022-07-22T03:12:05;11.00;;;8.25;;
61572;SDS011;47465;43.094;12.434;2022-07-22T03:14:31;11.10;;;9.13;;
61572;SDS011;47465;43.094;12.434;2022-07-22T03:16:57;11.55;;;9.05;;
61572;SDS011;47465;43.094;12.434;2022-07-22T03:19:22;11.10;;;8.27;;
61572;SDS011;47465;43.094;12.434;2022-07-22T03:21:50;10.48;;;8.95;;
61572;SDS011;47465;43.094;12.434;2022-07-22T03:24:16;12.95;;;9.18;;
61572;SDS011;47465;43.094;12.434;2022-07-22T03:26:41;10.18;;;8.60;;
61572;SDS011;47465;43.094;12.434;2022-07-22T03:29:07;11.70;;;9.07;;
61572;SDS011;47465;43.094;12.434;2022-07-22T03:31:33;13.15;;;8.95;;
61572;SDS011;47465;43.094;12.434;2022-07-22T03:33:59;11.63;;;8.63;;
61572;SDS011;47465;43.094;12.434;2022-07-22T03:36:26;11.23;;;8.20;;
61572;SDS011;47465;43.094;12.434;2022-07-22T03:38:54;10.30;;;8.43;;
61572;SDS011;47465;43.094;12.434;2022-07-22T03:41:19;10.65;;;8.10;;
61572;SDS011;47465;43.094;12.434;2022-07-22T03:43:45;16.70;;;9.70;;
61572;SDS011;47465;43.094;12.434;2022-07-22T03:46:12;11.18;;;8.27;;
61572;SDS011;47465;43.094;12.434;2022-07-22T03:48:38;10.40;;;8.20;;
61572;SDS011;47465;43.094;12.434;2022-07-22T03:51:04;13.48;;;8.65;;
61572;SDS011;47465;43.094;12.434;2022-07-22T03:53:30;11.23;;;8.60;;
61572;SDS011;47465;43.094;12.434;2022-07-22T03:55:59;10.45;;;8.85;;
61572;SDS011;47465;43.094;12.434;2022-07-22T03:58:25;11.55;;;8.38;;
61572;SDS011;47465;43.094;12.434;2022-07-22T04:00:51;11.50;;;8.38;;
61572;SDS011;47465;43.094;12.434;2022-07-22T04:03:17;10.65;;;8.43;;
61572;SDS011;47465;43.094;12.434;2022-07-22T04:05:43;11.10;;;8.60;;
61572;SDS011;47465;43.094;12.434;2022-07-22T04:08:10;9.32;;;8.32;;
61572;SDS011;47465;43.094;12.434;2022-07-22T04:10:36;9.63;;;8.60;;
61572;SDS011;47465;43.094;12.434;2022-07-22T04:13:04;10.88;;;8.18;;
61572;SDS011;47465;43.094;12.434;2022-07-22T04:15:30;11.57;;;9.05;;
61572;SDS011;47465;43.094;12.434;2022-07-22T04:17:56;11.75;;;9.45;;
61572;SDS011;47465;43.094;12.434;2022-07-22T04:20:22;12.20;;;9.40;;
61572;SDS011;47465;43.094;12.434;2022-07-22T04:22:48;11.93;;;9.07;;
61572;SDS011;47465;43.094;12.434;2022-07-22T04:25:14;12.93;;;9.45;;
61572;SDS011;47465;43.094;12.434;2022-07-22T04:27:40;12.30;;;9.50;;
61572;SDS011;47465;43.094;12.434;2022-07-22T04:30:08;13.10;;;9.80;;
61572;SDS011;47465;43.094;12.434;2022-07-22T04:32:34;11.23;;;9.35;;
61572;SDS011;47465;43.094;12.434;2022-07-22T04:35:00;14.38;;;9.90;;
61572;SDS011;47465;43.094;12.434;2022-07-22T04:37:26;10.30;;;9.13;;
61572;SDS011;47465;43.094;12.434;2022-07-22T04:39:52;11.23;;;9.27;;
61572;SDS011;47465;43.094;12.434;2022-07-22T04:42:17;12.55;;;9.73;;
61572;SDS011;47465;43.094;12.434;2022-07-22T04:44:43;12.05;;;8.70;;
61572;SDS011;47465;43.094;12.434;2022-07-22T04:47:11;10.73;;;8.63;;
61572;SDS011;47465;43.094;12.434;2022-07-22T04:49:37;10.85;;;9.20;;
61572;SDS011;47465;43.094;12.434;2022-07-22T04:52:03;14.63;;;9.02;;
61572;SDS011;47465;43.094;12.434;2022-07-22T04:54:29;10.65;;;9.55;;
61572;SDS011;47465;43.094;12.434;2022-07-22T04:56:55;12.50;;;9.27;;
61572;SDS011;47465;43.094;12.434;2022-07-22T04:59:21;16.63;;;9.63;;
61572;SDS011;47465;43.094;12.434;2022-07-22T05:01:46;12.82;;;10.32;;
61572;SDS011;47465;43.094;12.434;2022-07-22T05:04:14;11.98;;;9.82;;
61572;SDS011;47465;43.094;12.434;2022-07-22T05:06:40;13.30;;;10.30;;
61572;SDS011;47465;43.094;12.434;2022-07-22T05:09:06;14.93;;;10.40;;
61572;SDS011;47465;43.094;12.434;2022-07-22T05:11:32;13.50;;;9.60;;
61572;SDS011;47465;43.094;12.434;2022-07-22T05:13:58;10.50;;;9.43;;
61572;SDS011;47465;43.094;12.434;2022-07-22T05:16:24;14.80;;;10.48;;
61572;SDS011;47465;43.094;12.434;2022-07-22T05:18:50;13.45;;;10.18;;
61572;SDS011;47465;43.094;12.434;2022-07-22T05:21:17;10.98;;;9.73;;
61572;SDS011;47465;43.094;12.434;2022-07-22T05:23:43;15.02;;;9.50;;
61572;SDS011;47465;43.094;12.434;2022-07-22T05:26:09;12.02;;;9.23;;
61572;SDS011;47465;43.094;12.434;2022-07-22T05:28:35;12.63;;;9.63;;
61572;SDS011;47465;43.094;12.434;2022-07-22T05:31:01;21.58;;;9.88;;
61572;SDS011;47465;43.094;12.434;2022-07-22T05:33:26;15.80;;;10.13;;
61572;SDS011;47465;43.094;12.434;2022-07-22T05:35:52;17.42;;;8.88;;
61572;SDS011;47465;43.094;12.434;2022-07-22T05:38:20;20.33;;;9.65;;
61572;SDS011;47465;43.094;12.434;2022-07-22T05:40:46;11.40;;;8.93;;
61572;SDS011;47465;43.094;12.434;2022-07-22T05:43:12;13.50;;;10.25;;
61572;SDS011;47465;43.094;12.434;2022-07-22T05:45:37;16.45;;;9.60;;
61572;SDS011;47465;43.094;12.434;2022-07-22T05:48:03;12.88;;;9.48;;
61572;SDS011;47465;43.094;12.434;2022-07-22T05:50:30;14.38;;;9.68;;
61572;SDS011;47465;43.094;12.434;2022-07-22T05:52:56;16.48;;;9.63;;
61572;SDS011;47465;43.094;12.434;2022-07-22T05:55:23;15.07;;;9.50;;
61572;SDS011;47465;43.094;12.434;2022-07-22T05:57:49;10.27;;;8.65;;
61572;SDS011;47465;43.094;12.434;2022-07-22T06:00:15;12.35;;;9.43;;
61572;SDS011;47465;43.094;12.434;2022-07-22T06:02:41;13.77;;;8.93;;
61572;SDS011;47465;43.094;12.434;2022-07-22T06:05:07;13.35;;;9.38;;
61572;SDS011;47465;43.094;12.434;2022-07-22T06:07:33;13.45;;;9.10;;
61572;SDS011;47465;43.094;12.434;2022-07-22T06:09:59;13.27;;;9.00;;
61572;SDS011;47465;43.094;12.434;2022-07-22T06:12:26;15.13;;;9.50;;
61572;SDS011;47465;43.094;12.434;2022-07-22T06:14:52;11.85;;;9.32;;
61572;SDS011;47465;43.094;12.434;2022-07-22T06:17:18;13.48;;;9.35;;
61572;SDS011;47465;43.094;12.434;2022-07-22T06:19:43;11.32;;;8.77;;
61572;SDS011;47465;43.094;12.434;2022-07-22T06:22:09;16.40;;;9.50;;
61572;SDS011;47465;43.094;12.434;2022-07-22T06:24:35;11.43;;;9.52;;
61572;SDS011;47465;43.094;12.434;2022-07-22T06:27:01;12.20;;;8.93;;
61572;SDS011;47465;43.094;12.434;2022-07-22T06:29:28;17.05;;;9.30;;
61572;SDS011;47465;43.094;12.434;2022-07-22T06:31:54;15.20;;;10.23;;
61572;SDS011;47465;43.094;12.434;2022-07-22T06:34:20;12.60;;;9.18;;
61572;SDS011;47465;43.094;12.434;2022-07-22T06:36:46;14.25;;;9.00;;
61572;SDS011;47465;43.094;12.434;2022-07-22T06:39:12;21.35;;;9.25;;
61572;SDS011;47465;43.094;12.434;2022-07-22T06:41:38;13.90;;;8.73;;
61572;SDS011;47465;43.094;12.434;2022-07-22T06:44:03;10.65;;;8.88;;
61572;SDS011;47465;43.094;12.434;2022-07-22T06:46:31;15.52;;;8.60;;
61572;SDS011;47465;43.094;12.434;2022-07-22T06:48:56;13.57;;;8.82;;
61572;SDS011;47465;43.094;12.434;2022-07-22T06:51:22;15.18;;;9.60;;
61572;SDS011;47465;43.094;12.434;2022-07-22T06:53:48;13.07;;;9.13;;
61572;SDS011;47465;43.094;12.434;2022-07-22T06:56:14;12.57;;;8.82;;
61572;SDS011;47465;43.094;12.434;2022-07-22T06:58:40;13.05;;;9.38;;
61572;SDS011;47465;43.094;12.434;2022-07-22T07:01:06;13.77;;;9.10;;
61572;SDS011;47465;43.094;12.434;2022-07-22T07:03:33;13.13;;;8.93;;
61572;SDS011;47465;43.094;12.434;2022-07-22T07:05:59;12.90;;;9.10;;
61572;SDS011;47465;43.094;12.434;2022-07-22T07:08:25;10.23;;;7.85;;
61572;SDS011;47465;43.094;12.434;2022-07-22T07:10:51;13.30;;;8.77;;
61572;SDS011;47465;43.094;12.434;2022-07-22T07:13:16;13.23;;;8.80;;
61572;SDS011;47465;43.094;12.434;2022-07-22T07:15:42;13.25;;;8.65;;
61572;SDS011;47465;43.094;12.434;2022-07-22T07:18:08;10.50;;;8.57;;
61572;SDS011;47465;43.094;12.434;2022-07-22T07:20:36;12.88;;;9.23;;
61572;SDS011;47465;43.094;12.434;2022-07-22T07:23:02;14.47;;;9.30;;
61572;SDS011;47465;43.094;12.434;2022-07-22T07:25:28;10.82;;;8.90;;
61572;SDS011;47465;43.094;12.434;2022-07-22T07:27:54;12.25;;;8.55;;
61572;SDS011;47465;43.094;12.434;2022-07-22T07:30:20;10.38;;;8.82;;
61572;SDS011;47465;43.094;12.434;2022-07-22T07:32:46;17.55;;;9.30;;
61572;SDS011;47465;43.094;12.434;2022-07-22T07:35:12;11.13;;;8.80;;
61572;SDS011;47465;43.094;12.434;2022-07-22T07:37:40;12.18;;;9.32;;
61572;SDS011;47465;43.094;12.434;2022-07-22T07:40:06;13.80;;;9.75;;
61572;SDS011;47465;43.094;12.434;2022-07-22T07:42:32;11.93;;;9.23;;
61572;SDS011;47465;43.094;12.434;2022-07-22T07:44:59;10.05;;;9.00;;
61572;SDS011;47465;43.094;12.434;2022-07-22T07:47:24;10.20;;;8.73;;
61572;SDS011;47465;43.094;12.434;2022-07-22T07:49:50;11.77;;;8.85;;
61572;SDS011;47465;43.094;12.434;2022-07-22T07:52:16;11.55;;;8.32;;
61572;SDS011;47465;43.094;12.434;2022-07-22T07:54:44;11.35;;;8.18;;
61572;SDS011;47465;43.094;12.434;2022-07-22T07:57:11;11.65;;;8.20;;
61572;SDS011;47465;43.094;12.434;2022-07-22T07:59:37;10.85;;;8.88;;
61572;SDS011;47465;43.094;12.434;2022-07-22T08:02:03;10.05;;;8.82;;
61572;SDS011;47465;43.094;12.434;2022-07-22T08:04:30;10.93;;;8.38;;
61572;SDS011;47465;43.094;12.434;2022-07-22T08:06:56;11.80;;;8.48;;
61572;SDS011;47465;43.094;12.434;2022-07-22T08:09:22;13.18;;;8.48;;
61572;SDS011;47465;43.094;12.434;2022-07-22T08:11:50;9.55;;;8.45;;
61572;SDS011;47465;43.094;12.434;2022-07-22T08:16:42;11.30;;;7.60;;
61572;SDS011;47465;43.094;12.434;2022-07-22T08:19:08;8.13;;;6.80;;
61572;SDS011;47465;43.094;12.434;2022-07-22T08:21:35;9.40;;;7.18;;
61572;SDS011;47465;43.094;12.434;2022-07-22T08:24:01;8.73;;;7.30;;
61572;SDS011;47465;43.094;12.434;2022-07-22T08:26:27;11.07;;;7.88;;
61572;SDS011;47465;43.094;12.434;2022-07-22T08:28:54;10.35;;;7.60;;
61572;SDS011;47465;43.094;12.434;2022-07-22T08:31:20;10.10;;;7.37;;
61572;SDS011;47465;43.094;12.434;2022-07-22T08:33:46;11.90;;;7.28;;
61572;SDS011;47465;43.094;12.434;2022-07-22T08:36:12;15.70;;;8.48;;
61572;SDS011;47465;43.094;12.434;2022-07-22T08:38:38;11.15;;;7.82;;
61572;SDS011;47465;43.094;12.434;2022-07-22T08:41:04;14.82;;;8.00;;
61572;SDS011;47465;43.094;12.434;2022-07-22T08:43:30;9.90;;;7.65;;
61572;SDS011;47465;43.094;12.434;2022-07-22T08:46:00;11.45;;;7.55;;
61572;SDS011;47465;43.094;12.434;2022-07-22T08:48:27;10.70;;;7.75;;
61572;SDS011;47465;43.094;12.434;2022-07-22T08:50:52;10.25;;;8.00;;
61572;SDS011;47465;43.094;12.434;2022-07-22T08:53:18;9.57;;;7.55;;
61572;SDS011;47465;43.094;12.434;2022-07-22T08:55:44;10.35;;;7.93;;
61572;SDS011;47465;43.094;12.434;2022-07-22T08:58:11;12.48;;;7.72;;
61572;SDS011;47465;43.094;12.434;2022-07-22T09:00:38;11.43;;;7.50;;
61572;SDS011;47465;43.094;12.434;2022-07-22T09:03:17;12.48;;;7.75;;
61572;SDS011;47465;43.094;12.434;2022-07-22T09:05:45;12.55;;;8.45;;
61572;SDS011;47465;43.094;12.434;2022-07-22T09:08:11;12.73;;;8.48;;
61572;SDS011;47465;43.094;12.434;2022-07-22T09:10:37;9.52;;;7.63;;
61572;SDS011;47465;43.094;12.434;2022-07-22T09:13:04;10.45;;;8.43;;
61572;SDS011;47465;43.094;12.434;2022-07-22T09:15:32;8.63;;;7.72;;
61572;SDS011;47465;43.094;12.434;2022-07-22T09:18:01;11.52;;;8.43;;
61572;SDS011;47465;43.094;12.434;2022-07-22T09:20:29;10.43;;;8.10;;
61572;SDS011;47465;43.094;12.434;2022-07-22T09:22:55;13.00;;;8.15;;
61572;SDS011;47465;43.094;12.434;2022-07-22T09:25:26;15.55;;;8.15;;
61572;SDS011;47465;43.094;12.434;2022-07-22T09:27:54;9.80;;;8.18;;
61572;SDS011;47465;43.094;12.434;2022-07-22T09:30:34;10.55;;;8.02;;
61572;SDS011;47465;43.094;12.434;2022-07-22T09:35:29;9.93;;;7.88;;
61572;SDS011;47465;43.094;12.434;2022-07-22T09:37:56;10.23;;;8.27;;
61572;SDS011;47465;43.094;12.434;2022-07-22T09:40:23;9.40;;;7.80;;
61572;SDS011;47465;43.094;12.434;2022-07-22T09:42:53;9.00;;;8.10;;
61572;SDS011;47465;43.094;12.434;2022-07-22T09:45:21;9.73;;;7.82;;
61572;SDS011;47465;43.094;12.434;2022-07-22T09:47:49;10.75;;;7.97;;
61572;SDS011;47465;43.094;12.434;2022-07-22T09:50:19;11.35;;;7.50;;
61572;SDS011;47465;43.094;12.434;2022-07-22T09:52:47;10.50;;;8.35;;
61572;SDS011;47465;43.094;12.434;2022-07-22T09:55:14;10.80;;;7.82;;
61572;SDS011;47465;43.094;12.434;2022-07-22T09:57:42;9.60;;;7.93;;
61572;SDS011;47465;43.094;12.434;2022-07-22T10:00:09;10.98;;;8.35;;
61572;SDS011;47465;43.094;12.434;2022-07-22T10:02:37;10.88;;;7.97;;
61572;SDS011;47465;43.094;12.434;2022-07-22T10:05:06;12.23;;;8.13;;
61572;SDS011;47465;43.094;12.434;2022-07-22T10:07:35;10.85;;;8.00;;
61572;SDS011;47465;43.094;12.434;2022-07-22T10:10:05;11.10;;;8.53;;
61572;SDS011;47465;43.094;12.434;2022-07-22T10:12:32;9.82;;;8.35;;
61572;SDS011;47465;43.094;12.434;2022-07-22T10:14:59;9.40;;;8.37;;
61572;SDS011;47465;43.094;12.434;2022-07-22T10:17:25;10.00;;;8.50;;
61572;SDS011;47465;43.094;12.434;2022-07-22T10:19:52;12.73;;;7.90;;
61572;SDS011;47465;43.094;12.434;2022-07-22T10:25:17;9.20;;;6.78;;
61572;SDS011;47465;43.094;12.434;2022-07-22T10:27:44;9.13;;;7.25;;
61572;SDS011;47465;43.094;12.434;2022-07-22T10:30:12;8.40;;;7.07;;
61572;SDS011;47465;43.094;12.434;2022-07-22T10:32:39;9.00;;;7.45;;
61572;SDS011;47465;43.094;12.434;2022-07-22T10:35:24;10.93;;;7.90;;
61572;SDS011;47465;43.094;12.434;2022-07-22T10:37:57;8.40;;;7.07;;
61572;SDS011;47465;43.094;12.434;2022-07-22T10:40:29;12.73;;;7.10;;
61572;SDS011;47465;43.094;12.434;2022-07-22T10:43:04;11.35;;;7.47;;
61572;SDS011;47465;43.094;12.434;2022-07-22T10:45:32;8.05;;;7.25;;
61572;SDS011;47465;43.094;12.434;2022-07-22T10:48:00;6.97;;;6.22;;
61572;SDS011;47465;43.094;12.434;2022-07-22T10:50:40;8.70;;;6.85;;
61572;SDS011;47465;43.094;12.434;2022-07-22T10:53:08;7.43;;;6.50;;
61572;SDS011;47465;43.094;12.434;2022-07-22T10:55:37;8.38;;;6.38;;
61572;SDS011;47465;43.094;12.434;2022-07-22T10:58:45;7.95;;;6.80;;
61572;SDS011;47465;43.094;12.434;2022-07-22T11:01:26;8.80;;;6.03;;
61572;SDS011;47465;43.094;12.434;2022-07-22T11:03:55;7.28;;;5.78;;
61572;SDS011;47465;43.094;12.434;2022-07-22T11:06:31;6.13;;;5.50;;
61572;SDS011;47465;43.094;12.434;2022-07-22T11:08:59;7.93;;;6.07;;
61572;SDS011;47465;43.094;12.434;2022-07-22T11:11:38;6.72;;;6.00;;
61572;SDS011;47465;43.094;12.434;2022-07-22T11:14:15;6.38;;;5.78;;
61572;SDS011;47465;43.094;12.434;2022-07-22T11:16:50;6.63;;;5.40;;
61572;SDS011;47465;43.094;12.434;2022-07-22T11:19:20;6.15;;;5.32;;
61572;SDS011;47465;43.094;12.434;2022-07-22T11:21:49;7.63;;;6.32;;
61572;SDS011;47465;43.094;12.434;2022-07-22T11:24:16;7.57;;;6.38;;
61572;SDS011;47465;43.094;12.434;2022-07-22T11:26:46;8.10;;;6.78;;
61572;SDS011;47465;43.094;12.434;2022-07-22T11:29:15;7.72;;;6.90;;
61572;SDS011;47465;43.094;12.434;2022-07-22T11:31:42;8.35;;;6.60;;
61572;SDS011;47465;43.094;12.434;2022-07-22T11:34:09;8.55;;;6.38;;
61572;SDS011;47465;43.094;12.434;2022-07-22T11:36:37;6.82;;;5.80;;
61572;SDS011;47465;43.094;12.434;2022-07-22T11:39:05;8.82;;;7.40;;
61572;SDS011;47465;43.094;12.434;2022-07-22T11:41:32;8.27;;;6.72;;
61572;SDS011;47465;43.094;12.434;2022-07-22T11:43:59;11.52;;;7.38;;
61572;SDS011;47465;43.094;12.434;2022-07-22T11:46:26;11.93;;;7.57;;
61572;SDS011;47465;43.094;12.434;2022-07-22T11:48:54;7.35;;;6.40;;
61572;SDS011;47465;43.094;12.434;2022-07-22T11:51:23;7.18;;;6.40;;
61572;SDS011;47465;43.094;12.434;2022-07-22T11:53:53;8.77;;;6.95;;
61572;SDS011;47465;43.094;12.434;2022-07-22T11:56:19;10.50;;;7.28;;
61572;SDS011;47465;43.094;12.434;2022-07-22T11:58:45;8.43;;;6.78;;
61572;SDS011;47465;43.094;12.434;2022-07-22T12:01:15;7.85;;;6.90;;
61572;SDS011;47465;43.094;12.434;2022-07-22T12:03:44;7.38;;;6.68;;
61572;SDS011;47465;43.094;12.434;2022-07-22T12:06:12;7.68;;;6.40;;
61572;SDS011;47465;43.094;12.434;2022-07-22T12:08:42;6.90;;;6.20;;
61572;SDS011;47465;43.094;12.434;2022-07-22T12:11:10;8.60;;;6.47;;
61572;SDS011;47465;43.094;12.434;2022-07-22T12:13:40;8.80;;;6.75;;
61572;SDS011;47465;43.094;12.434;2022-07-22T12:16:25;7.70;;;6.90;;
61572;SDS011;47465;43.094;12.434;2022-07-22T12:18:56;8.17;;;6.90;;
61572;SDS011;47465;43.094;12.434;2022-07-22T12:21:23;9.23;;;6.72;;
61572;SDS011;47465;43.094;12.434;2022-07-22T12:23:51;7.53;;;6.70;;
61572;SDS011;47465;43.094;12.434;2022-07-22T12:26:18;9.35;;;6.80;;
61572;SDS011;47465;43.094;12.434;2022-07-22T12:28:45;9.90;;;6.43;;
61572;SDS011;47465;43.094;12.434;2022-07-22T12:31:10;8.63;;;6.50;;
61572;SDS011;47465;43.094;12.434;2022-07-22T12:33:38;8.10;;;6.90;;
61572;SDS011;47465;43.094;12.434;2022-07-22T12:36:12;8.15;;;6.85;;
61572;SDS011;47465;43.094;12.434;2022-07-22T12:38:38;7.75;;;6.38;;
61572;SDS011;47465;43.094;12.434;2022-07-22T12:41:23;7.57;;;6.18;;
61572;SDS011;47465;43.094;12.434;2022-07-22T12:43:50;6.72;;;5.82;;
61572;SDS011;47465;43.094;12.434;2022-07-22T12:46:16;6.93;;;6.00;;
61572;SDS011;47465;43.094;12.434;2022-07-22T12:48:49;7.63;;;5.55;;
61572;SDS011;47465;43.094;12.434;2022-07-22T12:51:16;6.55;;;5.70;;
61572;SDS011;47465;43.094;12.434;2022-07-22T12:53:42;8.90;;;5.70;;
61572;SDS011;47465;43.094;12.434;2022-07-22T12:56:08;6.47;;;5.78;;
61572;SDS011;47465;43.094;12.434;2022-07-22T12:58:36;6.80;;;6.00;;
61572;SDS011;47465;43.094;12.434;2022-07-22T13:01:05;6.55;;;5.57;;
61572;SDS011;47465;43.094;12.434;2022-07-22T13:03:31;8.25;;;5.88;;
61572;SDS011;47465;43.094;12.434;2022-07-22T13:06:00;7.30;;;5.40;;
61572;SDS011;47465;43.094;12.434;2022-07-22T13:08:28;7.80;;;5.40;;
61572;SDS011;47465;43.094;12.434;2022-07-22T13:10:55;9.00;;;6.28;;
61572;SDS011;47465;43.094;12.434;2022-07-22T13:13:21;8.82;;;6.07;;
61572;SDS011;47465;43.094;12.434;2022-07-22T13:15:48;6.73;;;5.73;;
61572;SDS011;47465;43.094;12.434;2022-07-22T13:18:15;9.53;;;6.20;;
61572;SDS011;47465;43.094;12.434;2022-07-22T13:20:41;7.68;;;5.55;;
61572;SDS011;47465;43.094;12.434;2022-07-22T13:23:08;9.07;;;5.60;;
61572;SDS011;47465;43.094;12.434;2022-07-22T13:25:34;6.60;;;5.57;;
61572;SDS011;47465;43.094;12.434;2022-07-22T13:28:00;8.45;;;5.80;;
61572;SDS011;47465;43.094;12.434;2022-07-22T13:30:26;8.55;;;5.95;;
61572;SDS011;47465;43.094;12.434;2022-07-22T13:32:52;9.18;;;5.57;;
61572;SDS011;47465;43.094;12.434;2022-07-22T13:35:18;7.75;;;5.57;;
61572;SDS011;47465;43.094;12.434;2022-07-22T13:37:44;6.07;;;5.40;;
61572;SDS011;47465;43.094;12.434;2022-07-22T13:40:12;7.53;;;5.60;;
61572;SDS011;47465;43.094;12.434;2022-07-22T13:42:39;7.68;;;5.63;;
61572;SDS011;47465;43.094;12.434;2022-07-22T13:45:06;9.32;;;6.10;;
61572;SDS011;47465;43.094;12.434;2022-07-22T13:47:35;8.50;;;5.97;;
61572;SDS011;47465;43.094;12.434;2022-07-22T13:50:01;8.77;;;5.88;;
61572;SDS011;47465;43.094;12.434;2022-07-22T13:52:27;7.10;;;6.15;;
61572;SDS011;47465;43.094;12.434;2022-07-22T13:54:55;9.25;;;6.03;;
61572;SDS011;47465;43.094;12.434;2022-07-22T13:57:22;9.25;;;5.88;;
61572;SDS011;47465;43.094;12.434;2022-07-22T13:59:48;6.80;;;5.85;;
61572;SDS011;47465;43.094;12.434;2022-07-22T14:02:14;12.00;;;6.00;;
61572;SDS011;47465;43.094;12.434;2022-07-22T14:04:41;8.10;;;5.82;;
61572;SDS011;47465;43.094;12.434;2022-07-22T14:07:08;6.17;;;5.57;;
61572;SDS011;47465;43.094;12.434;2022-07-22T14:09:34;7.90;;;5.30;;
61572;SDS011;47465;43.094;12.434;2022-07-22T14:12:00;8.60;;;5.63;;
61572;SDS011;47465;43.094;12.434;2022-07-22T14:14:27;9.25;;;6.10;;
61572;SDS011;47465;43.094;12.434;2022-07-22T14:16:53;7.70;;;5.63;;
61572;SDS011;47465;43.094;12.434;2022-07-22T14:19:19;9.30;;;6.05;;
61572;SDS011;47465;43.094;12.434;2022-07-22T14:21:45;8.98;;;6.18;;
61572;SDS011;47465;43.094;12.434;2022-07-22T14:24:11;8.20;;;6.37;;
61572;SDS011;47465;43.094;12.434;2022-07-22T14:26:38;7.85;;;5.82;;
61572;SDS011;47465;43.094;12.434;2022-07-22T14:29:04;9.85;;;6.30;;
61572;SDS011;47465;43.094;12.434;2022-07-22T14:31:32;8.10;;;5.60;;
61572;SDS011;47465;43.094;12.434;2022-07-22T14:33:58;8.75;;;6.10;;